Time;durP1;ratioP1;P1;durP2;ratioP2;P2;SDS_P1;SDS_P2;PMS_P1;PMS_P2;Temp;Humidity;BMP_temperature;BMP_pressure;BME280_temperature;BME280_humidity;BME280_pressure;Samples;Min_cycle;Max_cycle;Signal;HPM_P1;HPM_P2
2022/09/25 00:00:32;;;;;;;;;;;27.10;39.30;;;;;;380978;291;279807;-56
2022/09/25 00:02:33;;;;;;;;;;;27.10;39.20;;;;;;380758;293;279578;-59
2022/09/25 00:04:35;;;;;;;;;;;27.10;39.10;;;;;;380543;293;278719;-58
2022/09/25 00:06:37;;;;;;;;;;;27.10;39.10;;;;;;380486;293;279469;-57
2022/09/25 00:08:39;;;;;;;;;;;27.10;39.10;;;;;;380880;293;279522;-57
2022/09/25 00:10:40;;;;;;;;;;;27.10;39.10;;;;;;380507;292;278552;-58
2022/09/25 00:12:42;;;;;;;;;;;27.00;39.10;;;;;;380528;293;279448;-59
2022/09/25 00:14:44;;;;;;;;;;;27.00;39.30;;;;;;380647;293;278744;-58
2022/09/25 00:16:45;;;;;;;;;;;27.00;39.30;;;;;;380623;293;278550;-57
2022/09/25 00:21:06;;;;;;;;;;;27.00;39.30;;;;;;379503;292;285501;-59
2022/09/25 00:23:08;;;;;;;;;;;27.00;39.20;;;;;;380242;293;278388;-60
2022/09/25 00:25:10;;;;;;;;;;;27.00;39.30;;;;;;380445;293;279551;-61
2022/09/25 00:27:11;;;;;;;;;;;27.00;40.20;;;;;;380675;293;278417;-57
2022/09/25 00:29:13;;;;;;;;;;;26.90;39.50;;;;;;380623;293;278904;-59
2022/09/25 00:31:15;;;;;;;;;;;27.00;39.50;;;;;;380287;293;279514;-59
2022/09/25 00:33:16;;;;;;;;;;;27.00;39.60;;;;;;380275;293;279601;-55
2022/09/25 00:35:18;;;;;;;;;;;27.00;39.90;;;;;;380953;293;280047;-57
2022/09/25 00:37:20;;;;;;;;;;;27.00;39.30;;;;;;380393;293;279167;-57
2022/09/25 00:39:21;;;;;;;;;;;27.00;39.30;;;;;;380381;293;279527;-55
2022/09/25 00:41:24;;;;;;;;;;;27.10;39.20;;;;;;380349;293;279629;-55
2022/09/25 00:43:26;;;;;;;;;;;27.00;39.10;;;;;;380195;293;285477;-57
2022/09/25 00:45:27;;;;;;;;;;;27.00;39.30;;;;;;380434;293;280047;-61
2022/09/25 00:47:29;;;;;;;;;;;27.00;39.20;;;;;;380647;293;279430;-55
2022/09/25 00:49:31;;;;;;;;;;;27.00;39.20;;;;;;380222;293;279546;-54
2022/09/25 00:51:35;;;;;;;;;;;27.10;39.10;;;;;;380432;292;279495;-56
2022/09/25 00:53:36;;;;;;;;;;;27.00;39.10;;;;;;380903;292;285606;-53
2022/09/25 00:55:38;;;;;;;;;;;27.00;39.10;;;;;;380427;293;279539;-55
2022/09/25 00:57:39;;;;;;;;;;;27.00;39.10;;;;;;380516;293;279613;-54
2022/09/25 00:59:41;;;;;;;;;;;27.00;39.20;;;;;;380381;293;279388;-56
2022/09/25 01:01:42;;;;;;;;;;;26.90;39.20;;;;;;380695;293;280077;-55
2022/09/25 01:03:45;;;;;;;;;;;26.90;39.30;;;;;;380289;293;280967;-53
2022/09/25 01:05:48;;;;;;;;;;;26.90;39.20;;;;;;380351;293;285427;-52
2022/09/25 01:07:49;;;;;;;;;;;26.90;39.20;;;;;;379778;293;285465;-55
2022/09/25 01:09:51;;;;;;;;;;;26.90;39.30;;;;;;380486;293;279586;-55
2022/09/25 01:11:53;;;;;;;;;;;26.90;39.30;;;;;;380448;293;279480;-57
2022/09/25 01:13:55;;;;;;;;;;;26.80;39.30;;;;;;380145;293;285559;-55
2022/09/25 01:15:56;;;;;;;;;;;26.80;39.30;;;;;;381014;293;278376;-53
2022/09/25 01:17:58;;;;;;;;;;;26.80;39.30;;;;;;380721;293;280275;-53
2022/09/25 01:20:00;;;;;;;;;;;26.80;39.30;;;;;;380384;291;279434;-53
2022/09/25 01:22:02;;;;;;;;;;;26.80;39.40;;;;;;379641;293;285362;-53
2022/09/25 01:24:08;;;;;;;;;;;26.80;39.40;;;;;;380960;293;279419;-55
2022/09/25 01:26:08;;;;;;;;;;;26.80;39.50;;;;;;380725;292;287835;-54
2022/09/25 01:28:09;;;;;;;;;;;26.80;39.50;;;;;;380423;293;279430;-53
2022/09/25 01:30:11;;;;;;;;;;;26.80;39.40;;;;;;380400;292;279522;-53
2022/09/25 01:32:13;;;;;;;;;;;26.80;39.40;;;;;;380406;293;278732;-54
2022/09/25 01:34:14;;;;;;;;;;;26.70;39.50;;;;;;380254;293;278439;-54
2022/09/25 01:36:16;;;;;;;;;;;26.70;39.50;;;;;;380416;293;279523;-54
2022/09/25 01:38:19;;;;;;;;;;;26.70;39.60;;;;;;381105;292;279516;-54
2022/09/25 01:40:21;;;;;;;;;;;26.70;39.50;;;;;;381548;291;285379;-55
2022/09/25 01:42:23;;;;;;;;;;;26.70;39.50;;;;;;384032;290;280478;-53
2022/09/25 01:44:26;;;;;;;;;;;26.70;39.50;;;;;;380712;293;281303;-53
2022/09/25 01:46:29;;;;;;;;;;;26.70;39.60;;;;;;379742;293;288402;-57
2022/09/25 01:48:31;;;;;;;;;;;26.70;39.60;;;;;;380558;292;285735;-53
2022/09/25 01:50:33;;;;;;;;;;;26.70;39.60;;;;;;379961;293;279284;-54
2022/09/25 01:52:35;;;;;;;;;;;26.60;39.60;;;;;;379775;293;279111;-53
2022/09/25 01:54:36;;;;;;;;;;;26.60;39.60;;;;;;379264;294;279499;-56
2022/09/25 01:56:38;;;;;;;;;;;26.60;39.60;;;;;;379495;294;279416;-53
2022/09/25 01:58:40;;;;;;;;;;;26.60;39.60;;;;;;379451;294;279330;-57
2022/09/25 02:00:42;;;;;;;;;;;26.60;39.70;;;;;;378825;293;285410;-57
2022/09/25 02:02:45;;;;;;;;;;;26.60;39.60;;;;;;379382;294;278876;-57
2022/09/25 02:04:46;;;;;;;;;;;26.60;39.60;;;;;;378869;294;287271;-52
2022/09/25 02:06:48;;;;;;;;;;;26.60;39.60;;;;;;379786;293;278502;-54
2022/09/25 02:08:51;;;;;;;;;;;26.60;39.70;;;;;;379535;293;280082;-54
2022/09/25 02:10:54;;;;;;;;;;;26.60;39.80;;;;;;378952;293;285369;-53
2022/09/25 02:12:56;;;;;;;;;;;26.60;39.70;;;;;;378752;294;288285;-53
2022/09/25 02:14:58;;;;;;;;;;;26.60;39.80;;;;;;378517;293;285398;-56
2022/09/25 02:17:00;;;;;;;;;;;26.60;39.80;;;;;;379382;294;279452;-54
2022/09/25 02:21:21;;;;;;;;;;;26.50;39.80;;;;;;379480;293;285499;-54
2022/09/25 02:23:23;;;;;;;;;;;26.50;39.90;;;;;;379405;293;279162;-54
2022/09/25 02:25:25;;;;;;;;;;;26.50;39.80;;;;;;379395;293;279582;-55
2022/09/25 02:27:26;;;;;;;;;;;26.50;40.00;;;;;;378735;294;288334;-54
2022/09/25 02:29:28;;;;;;;;;;;26.50;39.90;;;;;;379556;294;280003;-54
2022/09/25 02:31:30;;;;;;;;;;;26.50;39.90;;;;;;379093;292;279601;-54
2022/09/25 02:33:31;;;;;;;;;;;26.50;39.90;;;;;;379371;294;278743;-54
2022/09/25 02:35:33;;;;;;;;;;;26.50;40.00;;;;;;379273;294;278589;-54
2022/09/25 02:37:35;;;;;;;;;;;26.50;40.00;;;;;;379834;293;278925;-53
2022/09/25 02:39:36;;;;;;;;;;;26.50;40.00;;;;;;379238;293;279485;-53
2022/09/25 02:41:38;;;;;;;;;;;26.50;40.00;;;;;;379511;293;279479;-53
2022/09/25 02:43:40;;;;;;;;;;;26.40;40.00;;;;;;379461;294;279298;-54
2022/09/25 02:45:42;;;;;;;;;;;26.40;40.10;;;;;;379478;294;279365;-52
2022/09/25 02:47:43;;;;;;;;;;;26.40;40.10;;;;;;379546;294;279432;-51
2022/09/25 02:49:45;;;;;;;;;;;26.40;40.10;;;;;;379726;293;279404;-55
2022/09/25 02:51:47;;;;;;;;;;;26.40;40.10;;;;;;379093;292;277719;-52
2022/09/25 02:53:48;;;;;;;;;;;26.40;40.10;;;;;;379391;294;279122;-53
2022/09/25 02:55:50;;;;;;;;;;;26.40;40.10;;;;;;379219;293;279482;-52
2022/09/25 02:57:52;;;;;;;;;;;26.40;40.20;;;;;;379306;293;279480;-51
2022/09/25 02:59:53;;;;;;;;;;;26.40;40.10;;;;;;379366;292;279407;-53
2022/09/25 03:01:55;;;;;;;;;;;26.40;40.20;;;;;;379305;294;279375;-52
2022/09/25 03:03:57;;;;;;;;;;;26.40;40.20;;;;;;379396;294;279405;-53
2022/09/25 03:05:59;;;;;;;;;;;26.40;40.20;;;;;;379484;294;279472;-51
2022/09/25 03:10:20;;;;;;;;;;;26.40;40.20;;;;;;378342;293;285469;-56
2022/09/25 03:12:21;;;;;;;;;;;26.40;40.30;;;;;;379348;294;279445;-56
2022/09/25 03:14:23;;;;;;;;;;;26.40;40.30;;;;;;379523;293;278657;-57
2022/09/25 03:16:25;;;;;;;;;;;26.40;40.30;;;;;;378958;293;285302;-52
2022/09/25 03:18:27;;;;;;;;;;;26.30;40.30;;;;;;379897;293;279524;-54
2022/09/25 03:20:29;;;;;;;;;;;26.30;40.40;;;;;;379938;292;279552;-52
2022/09/25 03:22:30;;;;;;;;;;;26.40;40.30;;;;;;379420;294;279891;-53
2022/09/25 03:24:33;;;;;;;;;;;26.40;40.40;;;;;;379473;294;279546;-57
2022/09/25 03:26:34;;;;;;;;;;;26.40;40.40;;;;;;379195;293;285508;-56
2022/09/25 03:28:36;;;;;;;;;;;26.40;40.40;;;;;;379861;293;279449;-54
2022/09/25 03:30:39;;;;;;;;;;;26.30;40.30;;;;;;379188;294;278542;-54
2022/09/25 03:32:41;;;;;;;;;;;26.30;40.40;;;;;;378679;294;285583;-58
2022/09/25 03:34:42;;;;;;;;;;;26.30;40.40;;;;;;381112;293;279483;-54
2022/09/25 03:36:46;;;;;;;;;;;26.30;40.40;;;;;;380580;293;278716;-53
2022/09/25 03:38:48;;;;;;;;;;;26.30;40.50;;;;;;378823;294;285535;-53
2022/09/25 03:40:49;;;;;;;;;;;26.30;40.40;;;;;;379469;293;279524;-52
2022/09/25 03:42:51;;;;;;;;;;;26.30;40.40;;;;;;379343;294;279399;-53
2022/09/25 03:44:53;;;;;;;;;;;26.30;40.40;;;;;;379469;293;279582;-55
2022/09/25 03:46:54;;;;;;;;;;;26.30;40.40;;;;;;379802;293;279871;-55
2022/09/25 03:48:56;;;;;;;;;;;26.30;40.40;;;;;;379401;294;279597;-52
2022/09/25 03:50:58;;;;;;;;;;;26.30;40.40;;;;;;379366;293;278968;-52
2022/09/25 03:52:59;;;;;;;;;;;26.30;40.40;;;;;;378607;294;280005;-52
2022/09/25 03:55:01;;;;;;;;;;;26.30;40.40;;;;;;378749;295;279548;-52
2022/09/25 03:57:03;;;;;;;;;;;26.30;40.50;;;;;;378765;295;280040;-53
2022/09/25 03:59:04;;;;;;;;;;;26.30;40.50;;;;;;379447;293;279644;-52
2022/09/25 04:01:06;;;;;;;;;;;26.30;40.60;;;;;;378844;293;279691;-52
2022/09/25 04:03:08;;;;;;;;;;;26.30;40.50;;;;;;379047;293;281327;-53
2022/09/25 04:05:09;;;;;;;;;;;26.30;40.60;;;;;;379664;293;279547;-54
2022/09/25 04:07:11;;;;;;;;;;;26.30;40.50;;;;;;379037;293;279550;-51
2022/09/25 04:09:13;;;;;;;;;;;26.30;40.60;;;;;;379901;293;279608;-54
2022/09/25 04:11:14;;;;;;;;;;;26.30;40.60;;;;;;379677;292;279752;-54
2022/09/25 04:13:18;;;;;;;;;;;26.30;40.60;;;;;;379448;293;279675;-56
2022/09/25 04:15:24;;;;;;;;;;;26.30;40.50;;;;;;378529;293;285467;-53
2022/09/25 04:17:23;;;;;;;;;;;26.30;40.60;;;;;;378741;293;289556;-55
2022/09/25 04:19:25;;;;;;;;;;;26.30;40.60;;;;;;379629;293;279644;-54
2022/09/25 04:21:26;;;;;;;;;;;26.30;40.60;;;;;;379687;292;279571;-54
2022/09/25 04:23:28;;;;;;;;;;;26.30;40.60;;;;;;379735;293;280225;-56
2022/09/25 04:25:30;;;;;;;;;;;26.30;40.70;;;;;;378968;293;279520;-56
2022/09/25 04:27:31;;;;;;;;;;;26.30;40.60;;;;;;379407;293;279539;-54
2022/09/25 04:29:33;;;;;;;;;;;26.30;40.60;;;;;;379684;293;279537;-55
2022/09/25 04:31:35;;;;;;;;;;;26.30;40.70;;;;;;379122;293;279757;-53
2022/09/25 04:33:46;;;;;;;;;;;26.30;40.70;;;;;;379885;293;280032;-55
2022/09/25 04:35:48;;;;;;;;;;;26.30;40.70;;;;;;379193;293;285602;-55
2022/09/25 04:37:49;;;;;;;;;;;26.30;40.80;;;;;;379620;293;279494;-54
2022/09/25 04:39:51;;;;;;;;;;;26.30;40.90;;;;;;379256;293;278337;-53
2022/09/25 04:41:53;;;;;;;;;;;26.20;40.70;;;;;;379718;293;278689;-56
2022/09/25 04:43:54;;;;;;;;;;;26.30;40.70;;;;;;380006;293;279446;-56
2022/09/25 04:45:56;;;;;;;;;;;26.30;40.70;;;;;;379516;293;279490;-53
2022/09/25 04:47:58;;;;;;;;;;;26.30;40.70;;;;;;379816;293;278799;-57
2022/09/25 04:49:59;;;;;;;;;;;26.20;40.70;;;;;;379471;293;279441;-54
2022/09/25 04:52:01;;;;;;;;;;;26.20;40.70;;;;;;378894;293;280097;-53
2022/09/25 04:54:03;;;;;;;;;;;26.30;40.70;;;;;;379116;294;278405;-54
2022/09/25 04:56:06;;;;;;;;;;;26.30;40.70;;;;;;379678;293;280477;-54
2022/09/25 04:58:07;;;;;;;;;;;26.30;40.60;;;;;;378535;293;285486;-52
2022/09/25 05:00:09;;;;;;;;;;;26.30;40.60;;;;;;379382;294;279434;-53
2022/09/25 05:02:11;;;;;;;;;;;26.30;40.70;;;;;;379446;294;279573;-53
2022/09/25 05:04:14;;;;;;;;;;;26.20;40.60;;;;;;379531;294;279553;-54
2022/09/25 05:06:16;;;;;;;;;;;26.20;40.70;;;;;;378906;294;285338;-52
2022/09/25 05:08:18;;;;;;;;;;;26.20;40.60;;;;;;379631;293;280685;-56
2022/09/25 05:10:20;;;;;;;;;;;26.20;40.60;;;;;;379043;293;285690;-56
2022/09/25 05:12:22;;;;;;;;;;;26.20;40.70;;;;;;379393;293;280484;-53
2022/09/25 05:14:24;;;;;;;;;;;26.20;40.70;;;;;;379960;293;279608;-53
2022/09/25 05:16:27;;;;;;;;;;;26.20;40.60;;;;;;379343;293;279876;-53
2022/09/25 05:18:29;;;;;;;;;;;26.20;40.60;;;;;;379361;293;285976;-53
2022/09/25 05:20:30;;;;;;;;;;;26.20;40.60;;;;;;379205;292;279554;-53
2022/09/25 05:22:32;;;;;;;;;;;26.20;40.50;;;;;;379369;293;279683;-52
2022/09/25 05:24:34;;;;;;;;;;;26.20;40.60;;;;;;379176;293;279576;-53
2022/09/25 05:26:36;;;;;;;;;;;26.20;40.60;;;;;;378854;293;285430;-54
2022/09/25 05:28:38;;;;;;;;;;;26.20;40.60;;;;;;379016;294;285553;-54
2022/09/25 05:30:40;;;;;;;;;;;26.20;40.50;;;;;;380643;291;279731;-53
2022/09/25 05:32:41;;;;;;;;;;;26.20;40.70;;;;;;379577;293;279469;-54
2022/09/25 05:34:43;;;;;;;;;;;26.20;40.60;;;;;;379778;293;279484;-54
2022/09/25 05:36:45;;;;;;;;;;;26.20;40.60;;;;;;379429;294;280051;-55
2022/09/25 05:38:47;;;;;;;;;;;26.20;40.60;;;;;;379471;294;279462;-53
2022/09/25 05:40:48;;;;;;;;;;;26.20;40.60;;;;;;378960;293;285511;-54
2022/09/25 05:42:50;;;;;;;;;;;26.20;40.60;;;;;;379432;294;279491;-56
2022/09/25 05:44:52;;;;;;;;;;;26.20;40.60;;;;;;378900;294;285490;-54
2022/09/25 05:46:59;;;;;;;;;;;26.20;40.60;;;;;;379579;294;280173;-53
2022/09/25 05:48:57;;;;;;;;;;;26.20;40.60;;;;;;378359;293;285582;-53
2022/09/25 05:50:59;;;;;;;;;;;26.20;40.60;;;;;;379365;293;279545;-53
2022/09/25 05:53:01;;;;;;;;;;;26.20;40.70;;;;;;379658;293;279783;-54
2022/09/25 05:55:04;;;;;;;;;;;26.20;40.60;;;;;;379867;293;280408;-57
2022/09/25 05:57:06;;;;;;;;;;;26.30;40.70;;;;;;378942;293;285464;-53
2022/09/25 05:59:08;;;;;;;;;;;26.30;40.70;;;;;;379400;294;279386;-54
2022/09/25 06:01:09;;;;;;;;;;;26.20;40.70;;;;;;379649;293;278513;-55
2022/09/25 06:03:11;;;;;;;;;;;26.20;40.70;;;;;;379347;293;279571;-55
2022/09/25 06:05:13;;;;;;;;;;;26.20;40.70;;;;;;379416;294;280665;-56
2022/09/25 06:07:15;;;;;;;;;;;26.20;40.60;;;;;;378532;293;285644;-54
2022/09/25 06:09:17;;;;;;;;;;;26.20;40.60;;;;;;379395;294;279597;-56
2022/09/25 06:11:18;;;;;;;;;;;26.20;40.60;;;;;;379527;292;279935;-54
2022/09/25 06:13:20;;;;;;;;;;;26.20;40.60;;;;;;380079;293;279512;-54
2022/09/25 06:15:22;;;;;;;;;;;26.20;40.70;;;;;;379784;293;280175;-54
2022/09/25 06:17:24;;;;;;;;;;;26.20;40.60;;;;;;378825;294;286042;-58
2022/09/25 06:19:28;;;;;;;;;;;26.20;40.60;;;;;;379553;293;279554;-54
2022/09/25 06:21:29;;;;;;;;;;;26.20;40.70;;;;;;378829;293;285405;-53
2022/09/25 06:23:31;;;;;;;;;;;26.20;40.70;;;;;;379395;294;279506;-54
2022/09/25 06:25:33;;;;;;;;;;;26.20;40.60;;;;;;379712;293;279496;-55
2022/09/25 06:27:34;;;;;;;;;;;26.30;40.60;;;;;;379452;294;279606;-54
2022/09/25 06:29:36;;;;;;;;;;;26.20;40.70;;;;;;379021;293;279483;-56
2022/09/25 06:31:38;;;;;;;;;;;26.20;40.60;;;;;;379419;293;279505;-53
2022/09/25 06:33:39;;;;;;;;;;;26.20;40.60;;;;;;379443;294;279420;-51
2022/09/25 06:35:41;;;;;;;;;;;26.20;40.70;;;;;;379518;294;279563;-55
2022/09/25 06:37:43;;;;;;;;;;;26.20;40.70;;;;;;379574;294;278943;-56
2022/09/25 06:39:45;;;;;;;;;;;26.20;40.70;;;;;;379364;293;278608;-52
2022/09/25 06:41:46;;;;;;;;;;;26.20;40.70;;;;;;379405;293;279937;-56
2022/09/25 06:43:48;;;;;;;;;;;26.30;40.70;;;;;;379368;294;280069;-55
2022/09/25 06:45:50;;;;;;;;;;;26.20;40.70;;;;;;378956;294;285469;-52
2022/09/25 06:47:56;;;;;;;;;;;26.20;40.70;;;;;;379496;294;279512;-55
2022/09/25 06:49:55;;;;;;;;;;;26.20;40.70;;;;;;378355;294;285473;-52
2022/09/25 06:51:57;;;;;;;;;;;26.30;40.70;;;;;;380469;292;279534;-53
2022/09/25 06:53:58;;;;;;;;;;;26.20;40.80;;;;;;380981;293;279346;-52
2022/09/25 06:56:00;;;;;;;;;;;26.20;40.70;;;;;;381207;293;279544;-52
2022/09/25 06:58:03;;;;;;;;;;;26.20;40.80;;;;;;380966;293;279714;-51
2022/09/25 07:00:04;;;;;;;;;;;26.30;40.80;;;;;;378973;294;285311;-54
2022/09/25 07:04:10;;;;;;;;;;;26.30;40.80;;;;;;378495;293;286844;-54
2022/09/25 07:06:11;;;;;;;;;;;26.30;40.70;;;;;;379745;294;278484;-54
2022/09/25 07:08:15;;;;;;;;;;;26.30;40.80;;;;;;379197;294;279632;-56
2022/09/25 07:10:17;;;;;;;;;;;26.30;40.70;;;;;;378899;294;287350;-55
2022/09/25 07:12:20;;;;;;;;;;;26.30;40.80;;;;;;378757;294;285489;-56
2022/09/25 07:14:22;;;;;;;;;;;26.30;40.80;;;;;;378869;294;285437;-52
2022/09/25 07:16:24;;;;;;;;;;;26.20;40.80;;;;;;379274;294;279403;-55
2022/09/25 07:18:25;;;;;;;;;;;26.20;40.80;;;;;;378983;294;279369;-53
2022/09/25 07:20:27;;;;;;;;;;;26.30;40.80;;;;;;378862;294;279459;-54
2022/09/25 07:22:29;;;;;;;;;;;26.20;40.70;;;;;;379193;294;278518;-54
2022/09/25 07:24:31;;;;;;;;;;;26.30;40.70;;;;;;379164;294;279919;-58
2022/09/25 07:26:33;;;;;;;;;;;26.30;40.80;;;;;;378649;294;285602;-56
2022/09/25 07:28:35;;;;;;;;;;;26.20;40.90;;;;;;378944;294;279637;-55
2022/09/25 07:30:36;;;;;;;;;;;26.30;40.90;;;;;;379084;294;279547;-54
2022/09/25 07:32:38;;;;;;;;;;;26.20;40.80;;;;;;379003;294;278320;-55
2022/09/25 07:34:40;;;;;;;;;;;26.20;40.80;;;;;;379622;294;279322;-56
2022/09/25 07:36:41;;;;;;;;;;;26.20;40.90;;;;;;379085;292;279385;-54
2022/09/25 07:38:44;;;;;;;;;;;26.20;40.90;;;;;;380571;292;279428;-54
2022/09/25 07:40:46;;;;;;;;;;;26.20;40.90;;;;;;377983;294;285522;-53
2022/09/25 07:42:48;;;;;;;;;;;26.20;40.80;;;;;;378761;294;279405;-57
2022/09/25 07:44:50;;;;;;;;;;;26.30;40.90;;;;;;377737;294;279324;-53
2022/09/25 07:46:51;;;;;;;;;;;26.20;40.80;;;;;;380954;293;279462;-55
2022/09/25 07:48:53;;;;;;;;;;;26.30;40.80;;;;;;379129;294;279536;-57
2022/09/25 07:50:55;;;;;;;;;;;26.30;40.80;;;;;;378910;294;279472;-55
2022/09/25 07:52:56;;;;;;;;;;;26.30;40.90;;;;;;378729;294;279445;-53
2022/09/25 07:54:58;;;;;;;;;;;26.30;40.90;;;;;;379394;294;279473;-55
2022/09/25 07:57:00;;;;;;;;;;;26.30;40.80;;;;;;380491;292;279472;-54
2022/09/25 07:59:02;;;;;;;;;;;26.30;40.90;;;;;;380554;292;285314;-53
2022/09/25 08:01:03;;;;;;;;;;;26.30;40.90;;;;;;380649;292;279459;-55
2022/09/25 08:03:05;;;;;;;;;;;26.30;40.90;;;;;;380741;292;278470;-55
2022/09/25 08:05:07;;;;;;;;;;;26.30;40.90;;;;;;380837;292;279353;-54
2022/09/25 08:07:09;;;;;;;;;;;26.30;41.00;;;;;;380454;292;288215;-57
2022/09/25 08:09:11;;;;;;;;;;;26.30;41.00;;;;;;381300;292;279466;-53
2022/09/25 08:11:12;;;;;;;;;;;26.30;41.00;;;;;;380436;292;279840;-54
2022/09/25 08:13:17;;;;;;;;;;;26.30;41.00;;;;;;380650;292;279535;-53
2022/09/25 08:15:17;;;;;;;;;;;26.30;41.00;;;;;;379650;292;288376;-55
2022/09/25 08:17:21;;;;;;;;;;;26.30;41.10;;;;;;380077;292;279473;-54
2022/09/25 08:19:22;;;;;;;;;;;26.30;41.20;;;;;;380367;292;285403;-54
2022/09/25 08:21:24;;;;;;;;;;;26.30;41.10;;;;;;380615;292;279511;-56
2022/09/25 08:23:26;;;;;;;;;;;26.30;41.10;;;;;;380142;292;279419;-55
2022/09/25 08:25:28;;;;;;;;;;;26.30;41.20;;;;;;379305;292;285555;-54
2022/09/25 08:27:30;;;;;;;;;;;26.30;41.20;;;;;;380106;292;279480;-52
2022/09/25 08:29:32;;;;;;;;;;;26.30;41.30;;;;;;380562;292;279489;-56
2022/09/25 08:31:33;;;;;;;;;;;26.30;41.20;;;;;;380933;292;280148;-54
2022/09/25 08:33:36;;;;;;;;;;;26.30;41.20;;;;;;380598;291;279515;-53
2022/09/25 08:35:37;;;;;;;;;;;26.30;41.20;;;;;;380175;292;285411;-57
2022/09/25 08:37:40;;;;;;;;;;;26.30;41.20;;;;;;380655;292;279541;-54
2022/09/25 08:39:42;;;;;;;;;;;26.30;41.20;;;;;;380300;292;285515;-56
2022/09/25 08:41:43;;;;;;;;;;;26.30;41.20;;;;;;381306;292;279681;-54
2022/09/25 08:43:45;;;;;;;;;;;26.30;41.20;;;;;;381014;292;279526;-56
2022/09/25 08:50:27;;;;;;;;;;;26.30;41.20;;;;;;380340;292;285666;-55
2022/09/25 08:52:30;;;;;;;;;;;26.20;41.20;;;;;;379369;292;288404;-53
2022/09/25 08:54:31;;;;;;;;;;;26.20;41.30;;;;;;380327;293;285404;-51
2022/09/25 08:56:34;;;;;;;;;;;26.20;41.20;;;;;;379414;294;278598;-55
2022/09/25 08:58:39;;;;;;;;;;;26.30;41.30;;;;;;378904;294;288424;-53
2022/09/25 09:00:39;;;;;;;;;;;26.30;41.30;;;;;;379508;292;285739;-56
2022/09/25 09:02:41;;;;;;;;;;;26.20;41.30;;;;;;379262;293;279061;-59
2022/09/25 09:04:43;;;;;;;;;;;26.30;41.40;;;;;;379214;294;279727;-53
2022/09/25 09:06:44;;;;;;;;;;;26.30;41.40;;;;;;379482;294;279819;-57
2022/09/25 09:08:46;;;;;;;;;;;26.30;41.40;;;;;;379467;294;279645;-54
2022/09/25 09:10:48;;;;;;;;;;;26.30;41.50;;;;;;379398;293;279547;-56
2022/09/25 09:12:49;;;;;;;;;;;26.30;41.40;;;;;;379208;294;279680;-53
2022/09/25 09:14:51;;;;;;;;;;;26.30;41.40;;;;;;379572;293;279563;-55
2022/09/25 09:16:53;;;;;;;;;;;26.30;41.50;;;;;;379354;294;280662;-55
2022/09/25 09:18:54;;;;;;;;;;;26.30;41.40;;;;;;379536;294;279546;-55
2022/09/25 09:20:56;;;;;;;;;;;26.30;41.40;;;;;;379424;293;279577;-55
2022/09/25 09:22:58;;;;;;;;;;;26.30;41.50;;;;;;378842;293;279553;-55
2022/09/25 09:24:59;;;;;;;;;;;26.30;41.30;;;;;;379372;294;279573;-53
2022/09/25 09:27:03;;;;;;;;;;;26.30;41.40;;;;;;379507;293;279751;-54
2022/09/25 09:29:04;;;;;;;;;;;26.30;41.40;;;;;;379176;293;285603;-55
2022/09/25 09:31:06;;;;;;;;;;;26.30;41.40;;;;;;379505;293;279573;-54
2022/09/25 09:33:07;;;;;;;;;;;26.30;41.50;;;;;;379222;294;280091;-55
2022/09/25 09:35:09;;;;;;;;;;;26.30;41.40;;;;;;379501;293;281163;-55
2022/09/25 09:37:14;;;;;;;;;;;26.30;41.50;;;;;;379160;293;279519;-53
2022/09/25 09:39:14;;;;;;;;;;;26.30;41.50;;;;;;379804;293;288440;-55
2022/09/25 09:41:16;;;;;;;;;;;26.30;41.60;;;;;;381141;291;279492;-55
2022/09/25 09:43:18;;;;;;;;;;;26.30;41.60;;;;;;380964;293;279552;-58
2022/09/25 09:45:19;;;;;;;;;;;26.30;41.60;;;;;;380942;293;279505;-54
2022/09/25 09:47:21;;;;;;;;;;;26.30;41.60;;;;;;379692;293;281263;-56
2022/09/25 09:49:23;;;;;;;;;;;26.30;41.60;;;;;;379914;293;279585;-55
2022/09/25 09:51:24;;;;;;;;;;;26.30;41.60;;;;;;379528;292;279386;-58
2022/09/25 09:53:26;;;;;;;;;;;26.30;41.60;;;;;;379349;293;279452;-57
2022/09/25 09:55:28;;;;;;;;;;;26.30;41.60;;;;;;379263;293;285980;-57
2022/09/25 09:57:30;;;;;;;;;;;26.30;41.60;;;;;;379617;293;279398;-53
2022/09/25 09:59:31;;;;;;;;;;;26.30;41.60;;;;;;379336;293;278565;-53
2022/09/25 10:01:33;;;;;;;;;;;26.30;41.60;;;;;;379714;293;279564;-55
2022/09/25 10:03:36;;;;;;;;;;;26.30;41.70;;;;;;378796;293;279694;-56
2022/09/25 10:05:37;;;;;;;;;;;26.30;41.70;;;;;;379403;293;285345;-55
2022/09/25 10:07:39;;;;;;;;;;;26.30;41.60;;;;;;379240;293;279471;-54
2022/09/25 10:09:41;;;;;;;;;;;26.30;41.70;;;;;;379220;293;279692;-57
2022/09/25 10:11:44;;;;;;;;;;;26.30;41.60;;;;;;379114;292;287134;-54
2022/09/25 10:13:47;;;;;;;;;;;26.30;41.70;;;;;;378255;293;285455;-56
2022/09/25 10:15:50;;;;;;;;;;;26.30;41.70;;;;;;379073;293;289737;-55
2022/09/25 10:17:52;;;;;;;;;;;26.30;41.70;;;;;;378775;293;285515;-52
2022/09/25 10:19:54;;;;;;;;;;;26.30;41.70;;;;;;380126;293;279435;-54
2022/09/25 10:21:56;;;;;;;;;;;26.30;41.70;;;;;;378283;293;288096;-55
2022/09/25 10:23:58;;;;;;;;;;;26.30;41.70;;;;;;379635;293;279972;-56
2022/09/25 10:26:00;;;;;;;;;;;26.30;41.70;;;;;;378599;293;285465;-53
2022/09/25 10:28:01;;;;;;;;;;;26.30;41.70;;;;;;379106;293;279457;-53
2022/09/25 10:30:03;;;;;;;;;;;26.30;41.70;;;;;;378833;293;279496;-51
2022/09/25 10:32:05;;;;;;;;;;;26.30;41.70;;;;;;379033;293;279443;-54
2022/09/25 10:34:06;;;;;;;;;;;26.30;41.70;;;;;;379640;293;279413;-54
2022/09/25 10:36:08;;;;;;;;;;;26.30;41.80;;;;;;380112;293;279544;-53
2022/09/25 10:38:10;;;;;;;;;;;26.30;41.80;;;;;;380244;293;279919;-53
2022/09/25 10:40:12;;;;;;;;;;;26.30;41.80;;;;;;379269;292;285528;-54
2022/09/25 10:42:16;;;;;;;;;;;26.30;41.80;;;;;;379324;293;279461;-53
2022/09/25 10:44:17;;;;;;;;;;;26.30;41.80;;;;;;378633;293;287073;-51
2022/09/25 10:50:09;;;;;;;;;;;26.30;41.80;;;;;;379762;293;279440;-52
2022/09/25 10:50:42;;;;;;;;;;;26.30;41.90;;;;;;378802;293;285535;-55
2022/09/25 10:52:44;;;;;;;;;;;26.30;41.90;;;;;;378886;293;280840;-52
2022/09/25 10:54:46;;;;;;;;;;;26.20;41.90;;;;;;379347;294;279487;-54
2022/09/25 10:56:49;;;;;;;;;;;26.20;41.90;;;;;;379062;293;288256;-53
2022/09/25 10:58:53;;;;;;;;;;;26.20;41.90;;;;;;378850;293;285416;-55
2022/09/25 11:00:54;;;;;;;;;;;26.30;41.90;;;;;;379183;292;290752;-57
2022/09/25 11:02:56;;;;;;;;;;;26.20;41.90;;;;;;379948;293;279460;-52
2022/09/25 11:04:58;;;;;;;;;;;26.20;41.90;;;;;;379778;293;279840;-55
2022/09/25 11:07:00;;;;;;;;;;;26.20;41.90;;;;;;379326;293;279483;-56
2022/09/25 11:09:01;;;;;;;;;;;26.30;41.90;;;;;;379419;294;279570;-53
2022/09/25 11:11:03;;;;;;;;;;;26.30;41.90;;;;;;380005;292;279470;-56
2022/09/25 11:13:05;;;;;;;;;;;26.30;41.90;;;;;;379599;293;279467;-54
2022/09/25 11:15:07;;;;;;;;;;;26.30;41.90;;;;;;378774;293;285706;-53
2022/09/25 11:17:09;;;;;;;;;;;26.30;41.90;;;;;;378822;294;285406;-56
2022/09/25 11:19:11;;;;;;;;;;;26.30;41.90;;;;;;379471;294;279557;-53
2022/09/25 11:21:12;;;;;;;;;;;26.30;41.90;;;;;;379298;292;279749;-58
2022/09/25 11:23:14;;;;;;;;;;;26.30;41.90;;;;;;379281;294;278886;-55
2022/09/25 11:25:16;;;;;;;;;;;26.30;42.00;;;;;;379433;293;279572;-55
2022/09/25 11:27:18;;;;;;;;;;;26.30;42.00;;;;;;379247;293;279555;-54
2022/09/25 11:29:20;;;;;;;;;;;26.30;42.10;;;;;;380383;293;278466;-56
2022/09/25 11:31:21;;;;;;;;;;;26.30;42.00;;;;;;379320;293;279597;-55
2022/09/25 11:33:23;;;;;;;;;;;26.30;42.00;;;;;;378904;293;279520;-57
2022/09/25 11:35:25;;;;;;;;;;;26.30;42.00;;;;;;379227;294;279574;-54
2022/09/25 11:37:26;;;;;;;;;;;26.30;42.00;;;;;;379530;294;279109;-55
2022/09/25 11:41:48;;;;;;;;;;;26.20;42.10;;;;;;378675;293;285803;-57
2022/09/25 11:43:50;;;;;;;;;;;26.30;42.10;;;;;;379350;294;279335;-54
2022/09/25 11:45:52;;;;;;;;;;;26.30;42.20;;;;;;378464;293;285478;-53
2022/09/25 11:47:54;;;;;;;;;;;26.30;42.20;;;;;;378797;294;286699;-57
2022/09/25 11:51:02;;;;;;;;;;;26.20;42.30;;;;;;386145;287;280805;-52
2022/09/25 11:53:04;;;;;;;;;;;26.30;42.30;;;;;;378265;294;279653;-54
2022/09/25 11:55:06;;;;;;;;;;;26.30;42.40;;;;;;380050;293;279296;-54
2022/09/25 11:57:08;;;;;;;;;;;26.30;42.60;;;;;;382615;291;279664;-54